Terminal Aerodrome Forecast
Issued by NWS

Home | Current Version | Previous Version | Text Only | Print | Product List | Glossary On
Versions: 1 2 3 4 5 6 7 8 9 10 11 12 13 14 15 16 17
000
FTUS46 KMTR 231120
TAFSNS
TAF
KSNS 231120Z 2312/2412 12004KT 5SM BR OVC004
     FM231600 10003KT P6SM BKN006
     FM231730 VRB03KT P6SM SKC
     FM232000 30014KT P6SM SKC
     FM240300 31010KT P6SM BKN007
     FM240600 30005KT 6SM BR OVC004=

USA.gov is the U.S. government's official web portal to all federal, state and local government web resources and services.